Time,TemperatureF,DewpointF,PressureIn,WindDirection,WindDirectionDegrees,WindSpeedMPH,WindSpeedGustMPH,Humidity,HourlyPrecipIn,Conditions,Clouds,dailyrainin,SoftwareType,DateUTC
2013-06-25 00:05:00,79.7,76.2,30.14,SW,232,0.0,0.0,89,0.00,,,0.00,Wunderground v.1.15,2013-06-25 04:05:00,
2013-06-25 00:10:00,79.7,75.8,30.14,SW,217,0.0,0.0,88,0.00,,,0.00,Wunderground v.1.15,2013-06-25 04:10:00,
2013-06-25 00:20:00,79.7,76.2,30.14,SW,215,0.0,0.0,89,0.00,,,0.00,Wunderground v.1.15,2013-06-25 04:20:00,
2013-06-25 00:30:00,79.7,76.2,30.14,SW,217,0.0,0.0,89,0.00,,,0.00,Wunderground v.1.15,2013-06-25 04:30:00,
2013-06-25 00:35:00,79.6,76.1,30.14,SW,233,4.0,8.0,89,0.00,,,0.00,Wunderground v.1.15,2013-06-25 04:35:00,
2013-06-25 00:45:00,79.6,76.1,30.14,SW,221,9.0,9.0,89,0.00,,,0.00,Wunderground v.1.15,2013-06-25 04:45:00,
2013-06-25 00:50:00,79.6,76.1,30.14,SW,221,8.0,8.0,89,0.00,,,0.00,Wunderground v.1.15,2013-06-25 04:50:00,
2013-06-25 01:00:00,79.4,76.2,30.14,WSW,237,6.0,6.0,90,0.00,,,0.00,Wunderground v.1.15,2013-06-25 05:00:00,
2013-06-25 01:10:00,79.1,75.6,30.14,WSW,258,5.0,8.0,89,0.00,,,0.00,Wunderground v.1.15,2013-06-25 05:10:00,
2013-06-25 01:20:00,78.7,75.2,30.14,WSW,238,6.0,6.0,89,0.00,,,0.00,Wunderground v.1.15,2013-06-25 05:20:00,
2013-06-25 01:30:00,78.7,75.2,30.14,WSW,238,1.0,1.0,89,0.00,,,0.00,Wunderground v.1.15,2013-06-25 05:30:00,
2013-06-25 01:35:00,78.6,75.1,30.14,WSW,249,0.0,1.0,89,0.00,,,0.00,Wunderground v.1.15,2013-06-25 05:35:00,
2013-06-25 01:45:00,78.6,75.4,30.14,SW,230,0.0,0.0,90,0.00,,,0.00,Wunderground v.1.15,2013-06-25 05:45:00,
2013-06-25 01:50:00,78.6,75.4,30.13,SW,227,0.0,0.0,90,0.00,,,0.00,Wunderground v.1.15,2013-06-25 05:50:00,
2013-06-25 02:00:00,78.7,75.5,30.13,WSW,246,0.0,0.0,90,0.00,,,0.00,Wunderground v.1.15,2013-06-25 06:00:00,
2013-06-25 02:10:00,78.5,75.3,30.13,SW,229,0.0,0.0,90,0.00,,,0.00,Wunderground v.1.15,2013-06-25 06:10:00,
2013-06-25 02:15:00,78.5,75.3,30.13,WSW,238,0.0,0.0,90,0.00,,,0.00,Wunderground v.1.15,2013-06-25 06:15:00,
2013-06-25 02:25:00,78.4,75.2,30.13,WSW,238,0.0,0.0,90,0.00,,,0.00,Wunderground v.1.15,2013-06-25 06:25:00,
2013-06-25 02:35:00,78.2,75.0,30.13,West,274,0.0,0.0,90,0.00,,,0.00,Wunderground v.1.15,2013-06-25 06:35:00,
2013-06-25 02:40:00,78.0,74.8,30.13,WNW,283,0.0,1.0,90,0.00,,,0.00,Wunderground v.1.15,2013-06-25 06:40:00,
2013-06-25 02:50:00,77.9,74.7,30.13,WSW,239,0.0,0.0,90,0.00,,,0.00,Wunderground v.1.15,2013-06-25 06:50:00,
2013-06-25 03:00:00,77.8,74.6,30.13,WSW,252,0.0,0.0,90,0.00,,,0.00,Wunderground v.1.15,2013-06-25 07:00:00,
2013-06-25 03:05:00,77.8,74.6,30.13,WSW,250,0.0,0.0,90,0.00,,,0.00,Wunderground v.1.15,2013-06-25 07:05:00,
2013-06-25 03:15:00,77.7,74.5,30.13,WSW,244,0.0,0.0,90,0.00,,,0.00,Wunderground v.1.15,2013-06-25 07:15:00,
2013-06-25 03:25:00,77.7,74.9,30.13,WSW,239,0.0,0.0,91,0.00,,,0.00,Wunderground v.1.15,2013-06-25 07:25:00,
2013-06-25 03:30:00,77.7,74.9,30.12,WSW,246,0.0,0.0,91,0.00,,,0.00,Wunderground v.1.15,2013-06-25 07:30:00,
2013-06-25 03:40:00,77.6,74.8,30.13,WSW,246,0.0,0.0,91,0.00,,,0.00,Wunderground v.1.15,2013-06-25 07:40:00,
2013-06-25 03:50:00,77.5,74.7,30.13,WSW,254,0.0,0.0,91,0.00,,,0.00,Wunderground v.1.15,2013-06-25 07:50:00,
2013-06-25 04:00:00,77.4,74.6,30.13,West,265,0.0,0.0,91,0.00,,,0.00,Wunderground v.1.15,2013-06-25 08:00:00,
2013-06-25 04:05:00,77.4,74.6,30.12,West,265,0.0,0.0,91,0.00,,,0.00,Wunderground v.1.15,2013-06-25 08:05:00,
2013-06-25 04:15:00,77.3,74.5,30.12,West,265,0.0,0.0,91,0.00,,,0.00,Wunderground v.1.15,2013-06-25 08:15:00,
2013-06-25 04:20:00,77.3,74.5,30.12,West,265,0.0,0.0,91,0.00,,,0.00,Wunderground v.1.15,2013-06-25 08:20:00,
2013-06-25 04:30:00,77.2,74.4,30.12,West,271,0.0,0.0,91,0.00,,,0.00,Wunderground v.1.15,2013-06-25 08:30:00,
2013-06-25 04:40:00,77.2,74.4,30.13,West,277,0.0,0.0,91,0.00,,,0.00,Wunderground v.1.15,2013-06-25 08:40:00,
2013-06-25 04:45:00,77.2,74.4,30.13,West,277,0.0,0.0,91,0.00,,,0.00,Wunderground v.1.15,2013-06-25 08:45:00,
2013-06-25 04:55:00,77.1,74.3,30.13,West,277,0.0,0.0,91,0.00,,,0.00,Wunderground v.1.15,2013-06-25 08:55:00,
2013-06-25 05:05:00,77.1,74.3,30.13,West,277,0.0,0.0,91,0.00,,,0.00,Wunderground v.1.15,2013-06-25 09:05:00,
2013-06-25 05:15:00,77.0,74.5,30.13,West,277,0.0,0.0,92,0.00,,,0.00,Wunderground v.1.15,2013-06-25 09:15:00,
2013-06-25 05:25:00,77.0,74.5,30.13,West,271,0.0,0.0,92,0.00,,,0.00,Wunderground v.1.15,2013-06-25 09:25:00,
2013-06-25 05:30:00,76.9,74.4,30.13,West,273,0.0,0.0,92,0.00,,,0.00,Wunderground v.1.15,2013-06-25 09:30:00,
2013-06-25 05:40:00,76.8,74.3,30.14,West,273,0.0,0.0,92,0.00,,,0.00,Wunderground v.1.15,2013-06-25 09:40:00,
2013-06-25 05:50:00,76.7,74.2,30.14,West,273,0.0,0.0,92,0.00,,,0.00,Wunderground v.1.15,2013-06-25 09:50:00,
2013-06-25 06:00:00,76.7,74.2,30.14,West,273,0.0,0.0,92,0.00,,,0.00,Wunderground v.1.15,2013-06-25 10:00:00,
2013-06-25 06:10:00,76.8,74.3,30.14,West,273,0.0,0.0,92,0.00,,,0.00,Wunderground v.1.15,2013-06-25 10:10:00,
2013-06-25 06:20:00,76.7,74.2,30.14,West,273,0.0,0.0,92,0.00,,,0.00,Wunderground v.1.15,2013-06-25 10:20:00,
2013-06-25 06:30:00,76.7,74.5,30.14,West,273,0.0,0.0,93,0.00,,,0.00,Wunderground v.1.15,2013-06-25 10:30:00,
2013-06-25 06:40:00,76.6,74.4,30.14,West,273,0.0,0.0,93,0.00,,,0.00,Wunderground v.1.15,2013-06-25 10:40:00,
2013-06-25 06:45:00,76.7,74.5,30.14,West,273,0.0,0.0,93,0.00,,,0.00,Wunderground v.1.15,2013-06-25 10:45:00,
2013-06-25 06:55:00,76.6,74.4,30.15,West,273,0.0,0.0,93,0.00,,,0.00,Wunderground v.1.15,2013-06-25 10:55:00,
2013-06-25 07:05:00,76.6,74.4,30.15,West,272,0.0,0.0,93,0.00,,,0.00,Wunderground v.1.15,2013-06-25 11:05:00,
2013-06-25 07:10:00,76.7,74.5,30.14,West,272,0.0,0.0,93,0.00,,,0.00,Wunderground v.1.15,2013-06-25 11:10:00,
2013-06-25 07:20:00,76.8,74.6,30.15,West,272,0.0,0.0,93,0.00,,,0.00,Wunderground v.1.15,2013-06-25 11:20:00,
2013-06-25 07:30:00,76.9,74.7,30.15,West,272,0.0,0.0,93,0.00,,,0.00,Wunderground v.1.15,2013-06-25 11:30:00,
2013-06-25 07:35:00,76.9,74.7,30.15,West,272,0.0,0.0,93,0.00,,,0.00,Wunderground v.1.15,2013-06-25 11:35:00,
2013-06-25 07:45:00,77.1,74.9,30.15,WSW,246,0.0,0.0,93,0.00,,,0.00,Wunderground v.1.15,2013-06-25 11:45:00,
2013-06-25 07:55:00,77.2,75.0,30.15,WSW,238,0.0,0.0,93,0.00,,,0.00,Wunderground v.1.15,2013-06-25 11:55:00,
2013-06-25 08:00:00,77.4,75.5,30.15,SW,228,0.0,0.0,94,0.00,,,0.00,Wunderground v.1.15,2013-06-25 12:00:00,
2013-06-25 08:10:00,77.5,75.3,30.15,SW,229,0.0,0.0,93,0.00,,,0.00,Wunderground v.1.15,2013-06-25 12:10:00,
2013-06-25 08:20:00,78.0,75.5,30.15,WSW,242,0.0,0.0,92,0.00,,,0.00,Wunderground v.1.15,2013-06-25 12:20:00,
2013-06-25 08:30:00,78.5,75.7,30.15,WSW,250,0.0,0.0,91,0.00,,,0.00,Wunderground v.1.15,2013-06-25 12:30:00,
2013-06-25 08:35:00,78.8,75.9,30.15,SW,232,0.0,0.0,91,0.00,,,0.00,Wunderground v.1.15,2013-06-25 12:35:00,
2013-06-25 08:40:00,79.0,76.1,30.16,WSW,246,0.0,0.0,91,0.00,,,0.00,Wunderground v.1.15,2013-06-25 12:40:00,
2013-06-25 08:50:00,79.6,76.1,30.15,WSW,254,0.0,0.0,89,0.00,,,0.00,Wunderground v.1.15,2013-06-25 12:50:00,
2013-06-25 08:55:00,79.8,75.9,30.15,WSW,251,0.0,0.0,88,0.00,,,0.00,Wunderground v.1.15,2013-06-25 12:55:00,
2013-06-25 09:05:00,79.9,75.7,30.15,WSW,246,0.0,0.0,87,0.00,,,0.00,Wunderground v.1.15,2013-06-25 13:05:00,
2013-06-25 09:10:00,79.9,75.3,30.15,SW,234,0.0,0.0,86,0.00,,,0.00,Wunderground v.1.15,2013-06-25 13:10:00,
2013-06-25 09:20:00,80.4,75.5,30.15,WSW,251,0.0,0.0,85,0.00,,,0.00,Wunderground v.1.15,2013-06-25 13:20:00,
2013-06-25 09:30:00,80.4,75.1,30.15,West,274,0.0,0.0,84,0.00,,,0.00,Wunderground v.1.15,2013-06-25 13:30:00,
2013-06-25 09:40:00,80.9,75.2,30.14,West,259,0.0,0.0,83,0.00,,,0.00,Wunderground v.1.15,2013-06-25 13:40:00,
2013-06-25 09:45:00,80.8,74.8,30.14,WSW,257,0.0,0.0,82,0.00,,,0.00,Wunderground v.1.15,2013-06-25 13:45:00,
2013-06-25 09:55:00,81.0,74.6,30.14,WSW,242,0.0,0.0,81,0.00,,,0.00,Wunderground v.1.15,2013-06-25 13:55:00,
2013-06-25 10:05:00,81.0,75.0,30.14,WSW,258,0.0,0.0,82,0.00,,,0.00,Wunderground v.1.15,2013-06-25 14:05:00,
2013-06-25 10:10:00,80.8,75.2,30.15,WSW,251,0.0,0.0,83,0.00,,,0.00,Wunderground v.1.15,2013-06-25 14:10:00,
2013-06-25 10:20:00,80.8,75.5,30.14,WSW,244,0.0,0.0,84,0.00,,,0.00,Wunderground v.1.15,2013-06-25 14:20:00,
2013-06-25 10:30:00,80.7,75.8,30.14,WSW,239,0.0,0.0,85,0.00,,,0.00,Wunderground v.1.15,2013-06-25 14:30:00,
2013-06-25 10:35:00,80.7,75.8,30.14,SW,223,0.0,0.0,85,0.00,,,0.00,Wunderground v.1.15,2013-06-25 14:35:00,
2013-06-25 10:45:00,81.1,75.4,30.14,WSW,239,0.0,0.0,83,0.00,,,0.00,Wunderground v.1.15,2013-06-25 14:45:00,
2013-06-25 10:55:00,81.4,75.0,30.14,SW,235,0.0,0.0,81,0.00,,,0.00,Wunderground v.1.15,2013-06-25 14:55:00,
2013-06-25 11:05:00,81.9,75.5,30.14,WSW,241,0.0,0.0,81,0.00,,,0.00,Wunderground v.1.15,2013-06-25 15:05:00,
2013-06-25 11:15:00,81.8,75.4,30.14,SSW,209,0.0,0.0,81,0.00,,,0.00,Wunderground v.1.15,2013-06-25 15:15:00,
2013-06-25 11:20:00,81.7,75.3,30.14,WSW,248,0.0,0.0,81,0.00,,,0.00,Wunderground v.1.15,2013-06-25 15:20:00,
2013-06-25 11:30:00,82.1,75.3,30.14,SW,227,0.0,0.0,80,0.00,,,0.00,Wunderground v.1.15,2013-06-25 15:30:00,
2013-06-25 11:40:00,82.6,74.3,30.14,WSW,246,0.0,0.0,76,0.00,,,0.00,Wunderground v.1.15,2013-06-25 15:40:00,
2013-06-25 11:45:00,82.9,73.8,30.13,WSW,250,0.0,0.0,74,0.00,,,0.00,Wunderground v.1.15,2013-06-25 15:45:00,
2013-06-25 11:55:00,82.0,76.0,30.13,SW,227,0.0,0.0,82,0.00,,,0.00,Wunderground v.1.15,2013-06-25 15:55:00,
2013-06-25 12:00:00,81.3,76.0,30.14,SSW,195,0.0,0.0,84,0.00,,,0.00,Wunderground v.1.15,2013-06-25 16:00:00,
2013-06-25 12:10:00,80.7,76.5,30.13,South,183,5.0,9.0,87,0.00,,,0.00,Wunderground v.1.15,2013-06-25 16:10:00,
2013-06-25 12:15:00,80.8,76.2,30.13,SSW,203,8.0,9.0,86,0.00,,,0.00,Wunderground v.1.15,2013-06-25 16:15:00,
2013-06-25 12:25:00,80.9,76.3,30.13,SW,219,8.0,9.0,86,0.00,,,0.00,Wunderground v.1.15,2013-06-25 16:25:00,
2013-06-25 12:30:00,81.1,76.2,30.13,SSW,208,8.0,8.0,85,0.00,,,0.00,Wunderground v.1.15,2013-06-25 16:30:00,
2013-06-25 12:40:00,81.4,76.8,30.13,SSW,202,7.0,13.0,86,0.00,,,0.00,Wunderground v.1.15,2013-06-25 16:40:00,
2013-06-25 12:45:00,81.1,75.8,30.13,SSW,192,8.0,13.0,84,0.00,,,0.00,Wunderground v.1.15,2013-06-25 16:45:00,
2013-06-25 12:55:00,81.5,75.5,30.13,SSW,212,9.0,11.0,82,0.00,,,0.00,Wunderground v.1.15,2013-06-25 16:55:00,
2013-06-25 13:05:00,81.6,75.9,30.12,SSW,211,10.0,10.0,83,0.00,,,0.00,Wunderground v.1.15,2013-06-25 17:05:00,
2013-06-25 13:15:00,81.9,76.2,30.12,SSW,202,9.0,13.0,83,0.00,,,0.00,Wunderground v.1.15,2013-06-25 17:15:00,
2013-06-25 13:25:00,81.6,76.3,30.12,SSW,197,9.0,12.0,84,0.00,,,0.00,Wunderground v.1.15,2013-06-25 17:25:00,
2013-06-25 13:30:00,81.7,76.7,30.12,SSW,200,9.0,9.0,85,0.00,,,0.00,Wunderground v.1.15,2013-06-25 17:30:00,
2013-06-25 13:40:00,82.0,77.0,30.11,SSW,200,8.0,9.0,85,0.00,,,0.00,Wunderground v.1.15,2013-06-25 17:40:00,
2013-06-25 13:50:00,82.5,76.8,30.11,SSW,209,4.0,10.0,83,0.00,,,0.00,Wunderground v.1.15,2013-06-25 17:50:00,
2013-06-25 14:00:00,81.9,76.9,30.10,SSW,192,8.0,8.0,85,0.00,,,0.00,Wunderground v.1.15,2013-06-25 18:00:00,
2013-06-25 14:10:00,81.7,77.1,30.09,SW,215,10.0,11.0,86,0.00,,,0.00,Wunderground v.1.15,2013-06-25 18:10:00,
2013-06-25 14:15:00,81.9,77.3,30.09,SSW,206,10.0,11.0,86,0.00,,,0.00,Wunderground v.1.15,2013-06-25 18:15:00,
2013-06-25 14:25:00,82.8,75.6,30.09,SSW,199,8.0,9.0,79,0.00,,,0.00,Wunderground v.1.15,2013-06-25 18:25:00,
2013-06-25 14:35:00,83.1,74.7,30.09,South,186,9.0,10.0,76,0.00,,,0.00,Wunderground v.1.15,2013-06-25 18:35:00,
2013-06-25 14:45:00,82.6,75.8,30.08,SSW,196,9.0,13.0,80,0.00,,,0.00,Wunderground v.1.15,2013-06-25 18:45:00,
2013-06-25 14:55:00,82.4,77.1,30.08,SSW,203,9.0,9.0,84,0.00,,,0.00,Wunderground v.1.15,2013-06-25 18:55:00,
2013-06-25 15:00:00,82.0,77.0,30.08,South,187,10.0,10.0,85,0.00,,,0.00,Wunderground v.1.15,2013-06-25 19:00:00,
2013-06-25 15:10:00,82.1,77.8,30.08,SSW,212,11.0,11.0,87,0.00,,,0.00,Wunderground v.1.15,2013-06-25 19:10:00,
2013-06-25 15:15:00,82.2,77.9,30.08,SSW,211,11.0,11.0,87,0.00,,,0.00,Wunderground v.1.15,2013-06-25 19:15:00,
2013-06-25 15:25:00,82.3,78.0,30.07,SW,219,10.0,13.0,87,0.00,,,0.00,Wunderground v.1.15,2013-06-25 19:25:00,
2013-06-25 15:30:00,82.1,77.8,30.07,SW,215,10.0,13.0,87,0.00,,,0.00,Wunderground v.1.15,2013-06-25 19:30:00,
2013-06-25 15:40:00,82.1,77.1,30.07,SSW,208,11.0,15.0,85,0.00,,,0.00,Wunderground v.1.15,2013-06-25 19:40:00,
2013-06-25 15:45:00,82.4,77.8,30.07,SSW,196,11.0,15.0,86,0.00,,,0.00,Wunderground v.1.15,2013-06-25 19:45:00,
2013-06-25 15:55:00,81.7,77.1,30.06,SW,225,9.0,10.0,86,0.00,,,0.00,Wunderground v.1.15,2013-06-25 19:55:00,
2013-06-25 16:05:00,81.4,76.8,30.06,SSW,207,12.0,15.0,86,0.00,,,0.00,Wunderground v.1.15,2013-06-25 20:05:00,
2013-06-25 16:10:00,81.6,77.4,30.06,SSE,167,12.0,12.0,87,0.00,,,0.00,Wunderground v.1.15,2013-06-25 20:10:00,
2013-06-25 16:20:00,81.7,77.5,30.06,South,186,12.0,12.0,87,0.00,,,0.00,Wunderground v.1.15,2013-06-25 20:20:00,
2013-06-25 16:25:00,81.8,76.8,30.06,SW,223,12.0,12.0,85,0.00,,,0.00,Wunderground v.1.15,2013-06-25 20:25:00,
2013-06-25 16:35:00,82.0,76.7,30.06,SSW,198,12.0,14.0,84,0.00,,,0.00,Wunderground v.1.15,2013-06-25 20:35:00,
2013-06-25 16:45:00,81.8,77.2,30.05,South,188,11.0,15.0,86,0.00,,,0.00,Wunderground v.1.15,2013-06-25 20:45:00,
2013-06-25 16:55:00,81.6,77.0,30.05,South,171,12.0,15.0,86,0.00,,,0.00,Wunderground v.1.15,2013-06-25 20:55:00,
2013-06-25 17:00:00,81.6,76.6,30.05,SW,231,12.0,13.0,85,0.00,,,0.00,Wunderground v.1.15,2013-06-25 21:00:00,
2013-06-25 17:10:00,82.0,77.0,30.05,SW,218,10.0,15.0,85,0.00,,,0.00,Wunderground v.1.15,2013-06-25 21:10:00,
2013-06-25 17:20:00,81.6,76.3,30.05,SSW,202,11.0,12.0,84,0.00,,,0.00,Wunderground v.1.15,2013-06-25 21:20:00,
2013-06-25 17:25:00,81.6,76.6,30.05,SW,221,12.0,13.0,85,0.00,,,0.00,Wunderground v.1.15,2013-06-25 21:25:00,
2013-06-25 17:35:00,81.8,76.8,30.05,SW,215,10.0,11.0,85,0.00,,,0.00,Wunderground v.1.15,2013-06-25 21:35:00,
2013-06-25 17:45:00,82.0,77.0,30.05,SW,235,10.0,12.0,85,0.00,,,0.00,Wunderground v.1.15,2013-06-25 21:45:00,
2013-06-25 17:55:00,81.6,76.3,30.04,SSW,202,10.0,11.0,84,0.00,,,0.00,Wunderground v.1.15,2013-06-25 21:55:00,
2013-06-25 18:00:00,81.5,76.6,30.04,SW,215,10.0,12.0,85,0.00,,,0.00,Wunderground v.1.15,2013-06-25 22:00:00,
2013-06-25 18:05:00,81.2,76.3,30.05,WSW,240,10.0,12.0,85,0.00,,,0.00,Wunderground v.1.15,2013-06-25 22:05:00,
2013-06-25 18:10:00,81.4,76.5,30.04,SSW,195,10.0,10.0,85,0.00,,,0.00,Wunderground v.1.15,2013-06-25 22:10:00,
2013-06-25 18:20:00,81.4,76.5,30.05,SSW,208,11.0,11.0,85,0.00,,,0.00,Wunderground v.1.15,2013-06-25 22:20:00,
2013-06-25 18:30:00,81.2,76.3,30.05,SSW,205,11.0,11.0,85,0.00,,,0.00,Wunderground v.1.15,2013-06-25 22:30:00,
2013-06-25 18:40:00,81.1,76.5,30.05,SW,217,10.0,12.0,86,0.00,,,0.00,Wunderground v.1.15,2013-06-25 22:40:00,
2013-06-25 18:50:00,81.1,76.5,30.05,SW,225,11.0,14.0,86,0.00,,,0.00,Wunderground v.1.15,2013-06-25 22:50:00,
2013-06-25 19:00:00,81.2,76.6,30.05,SW,229,11.0,11.0,86,0.00,,,0.00,Wunderground v.1.15,2013-06-25 23:00:00,
2013-06-25 19:10:00,81.1,76.9,30.05,SSW,207,11.0,11.0,87,0.00,,,0.00,Wunderground v.1.15,2013-06-25 23:10:00,
2013-06-25 19:15:00,81.1,76.9,30.05,SW,225,10.0,11.0,87,0.00,,,0.00,Wunderground v.1.15,2013-06-25 23:15:00,
2013-06-25 19:25:00,80.9,76.7,30.05,SSW,211,10.0,12.0,87,0.00,,,0.00,Wunderground v.1.15,2013-06-25 23:25:00,
2013-06-25 19:35:00,80.9,76.7,30.04,SW,214,10.0,10.0,87,0.00,,,0.00,Wunderground v.1.15,2013-06-25 23:35:00,
2013-06-25 19:40:00,80.9,77.0,30.04,SSW,213,10.0,13.0,88,0.00,,,0.00,Wunderground v.1.15,2013-06-25 23:40:00,
2013-06-25 19:45:00,80.7,76.8,30.04,SSW,209,10.0,13.0,88,0.00,,,0.00,Wunderground v.1.15,2013-06-25 23:45:00,
2013-06-25 19:55:00,80.6,76.7,30.05,SSW,204,11.0,12.0,88,0.00,,,0.00,Wunderground v.1.15,2013-06-25 23:55:00,
2013-06-25 20:00:00,80.6,76.7,30.06,SW,214,10.0,10.0,88,0.00,,,0.00,Wunderground v.1.15,2013-06-26 00:00:00,
2013-06-25 20:10:00,80.6,76.7,30.06,SW,215,9.0,9.0,88,0.00,,,0.00,Wunderground v.1.15,2013-06-26 00:10:00,
2013-06-25 20:20:00,80.5,76.6,30.06,SW,219,9.0,11.0,88,0.00,,,0.00,Wunderground v.1.15,2013-06-26 00:20:00,
2013-06-25 20:25:00,80.6,77.1,30.05,SSW,211,10.0,11.0,89,0.00,,,0.00,Wunderground v.1.15,2013-06-26 00:25:00,
2013-06-25 20:35:00,80.6,77.1,30.06,SSW,207,9.0,10.0,89,0.00,,,0.00,Wunderground v.1.15,2013-06-26 00:35:00,
2013-06-25 20:40:00,80.6,77.1,30.06,SSW,210,9.0,9.0,89,0.00,,,0.00,Wunderground v.1.15,2013-06-26 00:40:00,
2013-06-25 20:50:00,80.6,77.1,30.06,SW,219,8.0,8.0,89,0.00,,,0.00,Wunderground v.1.15,2013-06-26 00:50:00,
2013-06-25 21:00:00,80.5,76.6,30.06,SW,221,10.0,10.0,88,0.00,,,0.00,Wunderground v.1.15,2013-06-26 01:00:00,
2013-06-25 21:10:00,80.5,76.6,30.06,SSW,208,10.0,13.0,88,0.00,,,0.00,Wunderground v.1.15,2013-06-26 01:10:00,
2013-06-25 21:20:00,80.5,76.6,30.07,SW,229,10.0,10.0,88,0.00,,,0.00,Wunderground v.1.15,2013-06-26 01:20:00,
2013-06-25 21:30:00,80.6,76.4,30.07,SW,225,10.0,11.0,87,0.00,,,0.00,Wunderground v.1.15,2013-06-26 01:30:00,
2013-06-25 21:35:00,80.5,76.3,30.07,SW,221,10.0,11.0,87,0.00,,,0.00,Wunderground v.1.15,2013-06-26 01:35:00,
2013-06-25 21:40:00,80.5,76.6,30.07,WSW,246,10.0,10.0,88,0.00,,,0.00,Wunderground v.1.15,2013-06-26 01:40:00,
2013-06-25 21:50:00,80.5,76.6,30.07,WSW,237,9.0,10.0,88,0.00,,,0.00,Wunderground v.1.15,2013-06-26 01:50:00,
2013-06-25 21:55:00,80.3,76.1,30.07,WSW,251,8.0,10.0,87,0.00,,,0.00,Wunderground v.1.15,2013-06-26 01:55:00,
2013-06-25 22:05:00,79.9,75.7,30.07,WSW,250,6.0,7.0,87,0.00,,,0.00,Wunderground v.1.15,2013-06-26 02:05:00,
2013-06-25 22:10:00,79.8,75.6,30.08,WSW,258,6.0,6.0,87,0.00,,,0.00,Wunderground v.1.15,2013-06-26 02:10:00,
2013-06-25 22:20:00,79.6,75.4,30.07,West,259,5.0,5.0,87,0.00,,,0.00,Wunderground v.1.15,2013-06-26 02:20:00,
2013-06-25 22:30:00,79.4,75.2,30.08,West,279,6.0,6.0,87,0.00,,,0.00,Wunderground v.1.15,2013-06-26 02:30:00,
2013-06-25 22:40:00,79.2,75.3,30.07,West,267,3.0,3.0,88,0.00,,,0.00,Wunderground v.1.15,2013-06-26 02:40:00,
2013-06-25 22:50:00,79.2,75.7,30.07,WSW,252,0.0,0.0,89,0.00,,,0.00,Wunderground v.1.15,2013-06-26 02:50:00,
2013-06-25 23:00:00,79.0,75.5,30.07,West,281,0.0,3.0,89,0.00,,,0.00,Wunderground v.1.15,2013-06-26 03:00:00,
2013-06-25 23:10:00,78.8,75.3,30.07,West,271,1.0,1.0,89,0.00,,,0.00,Wunderground v.1.15,2013-06-26 03:10:00,
2013-06-25 23:20:00,78.8,75.6,30.05,West,264,0.0,0.0,90,0.00,,,0.00,Wunderground v.1.15,2013-06-26 03:20:00,
2013-06-25 23:30:00,79.0,75.8,30.05,WSW,247,0.0,0.0,90,0.00,,,0.00,Wunderground v.1.15,2013-06-26 03:30:00,
2013-06-25 23:35:00,79.0,76.1,30.05,West,261,0.0,0.0,91,0.00,,,0.00,Wunderground v.1.15,2013-06-26 03:35:00,
2013-06-25 23:40:00,79.1,76.2,30.05,WSW,248,0.0,0.0,91,0.00,,,0.00,Wunderground v.1.15,2013-06-26 03:40:00,
2013-06-25 23:50:00,79.1,76.2,30.04,WSW,244,0.0,0.0,91,0.00,,,0.00,Wunderground v.1.15,2013-06-26 03:50:00,